Tropical Cyclones
[Index]
Main Index Home Page Stock Weather Photos Extreme Storms Discussion Storm News and Storm Chasing Reports Tropical Cyclones / Hurricanes / Typhoons Weather Data and Links Wild Fires / Bushfires Weather Observation Techniques Weather Picture Catalogue Tornado Pictures and Reports Stock Video Footage and DVDs for sale
Season 1981-1982 Tropical Cyclone BERNIE Track Map
Season 1981-1982 Summaries: [BoM-AU] [JTWC-AU] [JTWC-SIO] [JTWC-SPAC] [JTWC-SH]
<<- Previous TC | JTWC 1981-1982 Season | Next TC ->>

click for intensity scale information  Lat/long Grid: Show Hide

 Date Labels: Show Hide

Joint Typhoon Warning Centre Cyclone Data

Name: BERNIE

31 Mar 1982 18:00 UTC to 09 Apr 1982 06:00 UTC

    date/time    lat    long     hPa   cat  kts
1982-03-31 18    3.2   159.2                  20          
1982-04-01 00    4.3   158.4                  20          
1982-04-01 06    5.3   158.0                  25          
1982-04-01 12    6.3   158.1                  25          
1982-04-01 18    7.3   158.2                  30          
1982-04-02 00    8.3   158.4                  30          
1982-04-02 06    9.1   158.6                  35          
1982-04-02 12    9.7   158.6                  35          
1982-04-02 18   10.1   158.5            1     40          
1982-04-03 00   10.5   158.4            1     45          
1982-04-03 06   10.9   158.2            1     50          
1982-04-03 12   11.3   158.0            2     55          
1982-04-03 18   11.8   157.7            2     60          
1982-04-04 00   12.4   157.4            2     65          
1982-04-04 06   13.3   157.1            2     70          
1982-04-04 12   14.3   156.8            3     75          
1982-04-04 18   15.3   156.6            3     80          
1982-04-05 00   16.5   156.5            3     85          
1982-04-05 06   17.6   156.6            3     90          
1982-04-05 12   18.6   156.9            3     95          
1982-04-05 18   19.5   157.5            3     95          
1982-04-06 00   20.3   158.3            3     90          
1982-04-06 06   21.1   159.1            3     85          
1982-04-06 12   21.8   159.9            3     80          
1982-04-06 18   22.6   160.8            3     75          
1982-04-07 00   23.5   161.9            2     70          
1982-04-07 06   24.4   163.2            2     65          
1982-04-07 12   25.3   164.6            2     60          
1982-04-07 18   26.3   166.1            2     55          
1982-04-08 00   27.3   167.8            1     50          
1982-04-08 06   28.3   169.8            1     45          
1982-04-08 12   29.5   171.9            1     40          
1982-04-08 18   31.0   174.3            1     40          
1982-04-09 00   32.7   176.9                  35          
1982-04-09 06   34.8   179.7                  30          
Winds are 1-min average.

Tropical cyclone tracks developed by Michael Bath using data from the Joint Typhoon Warning Centre Best Tracks and Google Maps.


[Australian Severe Weather index] [Copyright Notice] [Email Contacts] [Search This Site] [Privacy Policy]
Document: tropical_cyclone_bernie.htm Updated: 18 September 2016